Flight Track Log - Related Links

Times and Time Zones

All times are in EDT time to prevent confusion due to time zone crossing. See the UAL4431 flight status page for this flight to view local times or setup timezone preferences in your user account.

Time Position Orientation Groundspeed Altitude Reporting Facility
EDT Latitude Longitude Course Direction KTS MPH feet Rate Location/Type
Fri 08:25:20 PM 29.9767 -95.3008 90° East 166 191 700  Level Houston Center
Fri 08:25:44 PM 29.9647 -95.2853 132° Southeast 199 229 1,600 2,044 Climbing Houston Center
Fri 08:26:51 PM 29.8972 -95.2356 147° Southeast 266 306 3,800 1,500 Climbing Houston Center
Fri 08:27:20 PM 29.8803 -95.2194 140° Southeast 264 304 4,000 2,226 Climbing Houston Center
Fri 08:27:53 PM 29.8336 -95.1831 146° Southeast 278 320 6,100 3,194 Climbing Houston Center
Fri 08:28:00 PM 29.9834 -94.9845 90° East  Level FlightAware Approximate
Fri 08:28:22 PM 29.8061 -95.1522 136° Southeast 287 330 7,300  Level Houston Center
Fri 08:28:53 PM 29.8011 -95.1053 97° East 296 341 8,600 2,323 Climbing Houston Center
Fri 08:29:00 PM 29.9834 -94.8683 90° East  Level FlightAware Approximate
Fri 08:29:24 PM 29.8131 -95.0597 73° East 288 331 9,700  Level Houston Center
Fri 08:29:55 PM 29.8253 -95.0058 75° East 313 360 10,800 1,548 Climbing Houston Center
Fri 08:30:00 PM 29.9834 -94.7520 90° East  Level FlightAware Approximate
Fri 08:30:26 PM 29.8386 -94.9592 72° East 323 372 11,300  Level Houston Center
Fri 08:31:28 PM 29.8794 -94.8497 67° East 367 422 12,900 1,548 Climbing Houston Center
Fri 08:32:30 PM 29.9247 -94.7367 65° Northeast 386 444 14,500 1,645 Climbing Houston Center
Fri 08:33:32 PM 29.9708 -94.6197 66° East 399 459 16,300 1,659 Climbing Houston Center
Fri 08:34:33 PM 29.9903 -94.4683 82° East 423 487 17,900 1,268 Climbing Houston Center
Fri 08:35:35 PM 29.9958 -94.3281 87° East 436 502 18,900 532 Climbing Houston Center
Fri 08:36:37 PM 30.0114 -94.1803 83° East 462 532 19,000 48 Climbing Houston Center
Fri 08:37:39 PM 30.0306 -94.0300 82° East 474 545 19,000  Level Houston Center
Fri 08:38:41 PM 30.0489 -93.8800 82° East 474 545 19,000  Level Houston Center
Fri 08:39:43 PM 30.0672 -93.7325 82° East 470 541 19,000  Level Houston Center
Fri 08:40:45 PM 30.0886 -93.5558 82° East 470 541 19,000  Level Houston Center
Fri 08:41:46 PM 30.1053 -93.4078 83° East 472 543 19,000  Level Houston Center
Fri 08:42:48 PM 30.1231 -93.2611 82° East 470 541 19,000 -387 Level Houston Center
Fri 08:43:50 PM 30.1394 -93.1139 83° East 468 539 18,200 -1,355 Descending Houston Center
Fri 08:44:52 PM 30.1494 -92.9394 86° East 458 527 16,200 -1,984 Descending Houston Center
Fri 08:45:54 PM 30.1558 -92.7994 87° East 445 512 14,100 -2,226 Descending Houston Center
Fri 08:46:56 PM 30.1617 -92.6683 87° East 423 487 11,600 -1,500 Descending Houston Center
Fri 08:47:58 PM 30.1531 -92.5450 95° East 395 455 11,000 -634 Descending Houston Center
Fri 08:48:59 PM 30.1486 -92.4364 93° East 356 410 10,300 -1,268 Descending Houston Center
Fri 08:50:01 PM 30.1417 -92.3378 95° East 320 368 8,400 -2,032 Descending Houston Center
Fri 08:51:03 PM 30.1358 -92.2450 94° East 301 346 6,100 -2,371 Descending Houston Center
Fri 08:52:05 PM 30.1311 -92.1414 93° East 273 314 3,500 -2,516 Descending Houston Center

Login

Don't have an account? Register now (free) for customized features, flight alerts, and more!